Temp: 12.2°C   Baro: 1005.5mb
  Wind: 13.0mph   Dir: WSW (248°)
  Rain: 7.6mm (0.0mm/hr)
  Solar: 93W/m2  Hum: 91%
 
Bath Spa Weather Historical Data
Daily Summary for January 26, 2020 Units:  Both    English   Metric
Next Day »
Daily Weekly Monthly Yearly Custom
  High: Low: Average:
Temperature: 50 °F /  10.0 °C 44.2 °F /  6.8 °C 47.1 °F /  8.4 °C
Dew Point: 47.8 °F /  8.8 °C 42.6 °F /  5.9 °C 45 °F /  7.2 °C
Humidity: 95% 88% 93%
Wind Speed: 16.1mph /  25.9km/h - 3.6mph /  5.8km/h
Wind Gust: 17mph /  27.4km/h - -
Wind direction- - SW
Pressure: 29.9 in /  1012.1 hPa 29.7 in /  1004.3 hPa -
Precipitation: 0.22 in /  5.6 mm    
Historical Graphs
 
 
Tabular Data for January 26, 2020
Time Temperature Dew Point Pressure Wind direction Wind Speed Wind Gust Humidity Rainfall Rate (Hourly) solar
00:00 45.9 °F /  7.7 °C 44.4 °F /  6.9 °C 29.9in /  1012.1hPa South 0.9mph /  1.4km/h 4mph /  6.4km/h 95% 0in /  0.0mm 0.00 W/m2
00:05 45.9 °F /  7.7 °C 44.4 °F /  6.9 °C 29.9in /  1012.1hPa SSE 2mph /  3.2km/h 5mph /  8.0km/h 95% 0in /  0.0mm 0.00 W/m2
00:10 45.9 °F /  7.7 °C 44.4 °F /  6.9 °C 29.9in /  1012.1hPa South 4.9mph /  7.9km/h 6mph /  9.7km/h 95% 0in /  0.0mm 0.00 W/m2
00:15 45.9 °F /  7.7 °C 44.4 °F /  6.9 °C 29.9in /  1012.1hPa SE 4mph /  6.4km/h 6mph /  9.7km/h 95% 0in /  0.0mm 0.00 W/m2
00:20 46 °F /  7.8 °C 44.6 °F /  7.0 °C 29.9in /  1012.1hPa SSE 6mph /  9.7km/h 8mph /  12.9km/h 95% 0in /  0.0mm 0.00 W/m2
00:25 46 °F /  7.8 °C 44.6 °F /  7.0 °C 29.9in /  1012.1hPa SSE 4mph /  6.4km/h 7mph /  11.3km/h 95% 0in /  0.0mm 0.00 W/m2
00:30 46.2 °F /  7.9 °C 44.8 °F /  7.1 °C 29.9in /  1011.7hPa SSE 2.9mph /  4.7km/h 11mph /  17.7km/h 95% 0in /  0.0mm 0.00 W/m2
00:35 46.2 °F /  7.9 °C 44.8 °F /  7.1 °C 29.9in /  1011.7hPa SSE 2.9mph /  4.7km/h 7mph /  11.3km/h 95% 0in /  0.0mm 0.00 W/m2
00:40 46.2 °F /  7.9 °C 44.8 °F /  7.1 °C 29.9in /  1011.7hPa SE 2.9mph /  4.7km/h 6mph /  9.7km/h 95% 0in /  0.0mm 0.00 W/m2
00:45 46.2 °F /  7.9 °C 44.8 °F /  7.1 °C 29.9in /  1011.7hPa South 2.9mph /  4.7km/h 4mph /  6.4km/h 95% 0in /  0.0mm 0.00 W/m2
00:50 46.2 °F /  7.9 °C 44.8 °F /  7.1 °C 29.9in /  1011.7hPa South 2mph /  3.2km/h 5mph /  8.0km/h 95% 0in /  0.0mm 0.00 W/m2
00:55 46.2 °F /  7.9 °C 44.8 °F /  7.1 °C 29.9in /  1011.7hPa SSE 4mph /  6.4km/h 5mph /  8.0km/h 95% 0in /  0.0mm 0.00 W/m2
01:00 46.4 °F /  8.0 °C 45 °F /  7.2 °C 29.9in /  1011.7hPa South 4.9mph /  7.9km/h 7mph /  11.3km/h 95% 0in /  0.0mm 0.00 W/m2
01:05 46.4 °F /  8.0 °C 44.8 °F /  7.1 °C 29.9in /  1011.7hPa SSE 2mph /  3.2km/h 5mph /  8.0km/h 94% 0in /  0.0mm 0.00 W/m2
01:10 46.4 °F /  8.0 °C 44.8 °F /  7.1 °C 29.9in /  1011.4hPa South 4mph /  6.4km/h 7mph /  11.3km/h 94% 0in /  0.0mm 0.00 W/m2
01:15 46.2 °F /  7.9 °C 44.6 °F /  7.0 °C 29.9in /  1011.4hPa South 2mph /  3.2km/h 4mph /  6.4km/h 94% 0in /  0.0mm 0.00 W/m2
01:20 46.2 °F /  7.9 °C 44.6 °F /  7.0 °C 29.9in /  1011.4hPa South 6mph /  9.7km/h 7mph /  11.3km/h 94% 0in /  0.0mm 0.00 W/m2
01:25 46.2 °F /  7.9 °C 44.6 °F /  7.0 °C 29.9in /  1011.4hPa South 2mph /  3.2km/h 6mph /  9.7km/h 94% 0in /  0.0mm 0.00 W/m2
01:30 46.2 °F /  7.9 °C 44.6 °F /  7.0 °C 29.9in /  1011.4hPa South 6.9mph /  11.1km/h 7mph /  11.3km/h 94% 0in /  0.0mm 0.00 W/m2
01:35 46.2 °F /  7.9 °C 44.6 °F /  7.0 °C 29.9in /  1011.4hPa South 2.9mph /  4.7km/h 8mph /  12.9km/h 94% 0in /  0.0mm 0.00 W/m2
01:40 46.2 °F /  7.9 °C 44.6 °F /  7.0 °C 29.9in /  1011.4hPa South 2.9mph /  4.7km/h 7mph /  11.3km/h 94% 0in /  0.0mm 0.00 W/m2
01:45 46.2 °F /  7.9 °C 44.6 °F /  7.0 °C 29.9in /  1011.4hPa SSW 4.9mph /  7.9km/h 5mph /  8.0km/h 94% 0in /  0.0mm 0.00 W/m2
01:50 46.2 °F /  7.9 °C 44.6 °F /  7.0 °C 29.9in /  1011.1hPa South 2mph /  3.2km/h 4mph /  6.4km/h 94% 0in /  0.0mm 0.00 W/m2
01:55 46.4 °F /  8.0 °C 44.8 °F /  7.1 °C 29.9in /  1011.1hPa South 2.9mph /  4.7km/h 5mph /  8.0km/h 94% 0in /  0.0mm 0.00 W/m2
02:00 46.4 °F /  8.0 °C 44.8 °F /  7.1 °C 29.9in /  1011.4hPa South 0.9mph /  1.4km/h 4mph /  6.4km/h 94% 0in /  0.0mm 0.00 W/m2
02:05 46.4 °F /  8.0 °C 44.4 °F /  6.9 °C 29.9in /  1011.1hPa SSW 2mph /  3.2km/h 4mph /  6.4km/h 93% 0in /  0.0mm 0.00 W/m2
02:10 46.4 °F /  8.0 °C 44.4 °F /  6.9 °C 29.9in /  1011.1hPa South 0.9mph /  1.4km/h 2mph /  3.2km/h 93% 0in /  0.0mm 0.00 W/m2
02:15 46.4 °F /  8.0 °C 44.4 °F /  6.9 °C 29.9in /  1011.1hPa South 4mph /  6.4km/h 5mph /  8.0km/h 93% 0in /  0.0mm 0.00 W/m2
02:20 46.4 °F /  8.0 °C 44.4 °F /  6.9 °C 29.9in /  1011.1hPa South 0.9mph /  1.4km/h 3mph /  4.8km/h 93% 0in /  0.0mm 0.00 W/m2
02:25 46.6 °F /  8.1 °C 44.6 °F /  7.0 °C 29.9in /  1011.1hPa SSW 2.9mph /  4.7km/h 6mph /  9.7km/h 93% 0in /  0.0mm 0.00 W/m2
02:30 46.6 °F /  8.1 °C 44.6 °F /  7.0 °C 29.9in /  1011.1hPa South 2.9mph /  4.7km/h 8mph /  12.9km/h 93% 0in /  0.0mm 0.00 W/m2
02:35 46.6 °F /  8.1 °C 44.6 °F /  7.0 °C 29.9in /  1011.1hPa South 2mph /  3.2km/h 6mph /  9.7km/h 93% 0in /  0.0mm 0.00 W/m2
02:40 46.6 °F /  8.1 °C 44.6 °F /  7.0 °C 29.9in /  1011.1hPa South 2.9mph /  4.7km/h 4mph /  6.4km/h 93% 0in /  0.0mm 0.00 W/m2
02:45 46.6 °F /  8.1 °C 44.6 °F /  7.0 °C 29.9in /  1011.1hPa SSW 0.9mph /  1.4km/h 2mph /  3.2km/h 93% 0in /  0.0mm 0.00 W/m2
02:50 46.6 °F /  8.1 °C 44.6 °F /  7.0 °C 29.9in /  1011.1hPa South 2.9mph /  4.7km/h 5mph /  8.0km/h 93% 0in /  0.0mm 0.00 W/m2
02:55 46.6 °F /  8.1 °C 44.6 °F /  7.0 °C 29.8in /  1010.7hPa South 0.9mph /  1.4km/h 2mph /  3.2km/h 93% 0in /  0.0mm 0.00 W/m2
03:00 46.6 °F /  8.1 °C 44.6 °F /  7.0 °C 29.8in /  1010.7hPa South 2.9mph /  4.7km/h 4mph /  6.4km/h 93% 0in /  0.0mm 0.00 W/m2
03:05 46.6 °F /  8.1 °C 44.6 °F /  7.0 °C 29.8in /  1010.7hPa South 2.9mph /  4.7km/h 6mph /  9.7km/h 93% 0in /  0.0mm 0.00 W/m2
03:10 46.6 °F /  8.1 °C 44.6 °F /  7.0 °C 29.8in /  1010.7hPa South 2mph /  3.2km/h 5mph /  8.0km/h 93% 0in /  0.0mm 0.00 W/m2
03:15 46.6 °F /  8.1 °C 44.4 °F /  6.9 °C 29.8in /  1010.4hPa SSW 2mph /  3.2km/h 5mph /  8.0km/h 92% 0in /  0.0mm 0.00 W/m2
03:20 46.8 °F /  8.2 °C 44.8 °F /  7.1 °C 29.8in /  1010.4hPa SSW 4mph /  6.4km/h 6mph /  9.7km/h 93% 0in /  0.0mm 0.00 W/m2
03:25 46.9 °F /  8.3 °C 45 °F /  7.2 °C 29.8in /  1010.4hPa South 2mph /  3.2km/h 4mph /  6.4km/h 93% 0in /  0.0mm 0.00 W/m2
03:30 46.9 °F /  8.3 °C 44.8 °F /  7.1 °C 29.8in /  1010.4hPa South 0.9mph /  1.4km/h 6mph /  9.7km/h 92% 0in /  0.0mm 0.00 W/m2
03:36 46.9 °F /  8.3 °C 44.8 °F /  7.1 °C 29.8in /  1010.4hPa South 2.9mph /  4.7km/h 4mph /  6.4km/h 92% 0in /  0.0mm 0.00 W/m2
03:40 46.9 °F /  8.3 °C 44.8 °F /  7.1 °C 29.8in /  1010.4hPa SW 0.9mph /  1.4km/h 5mph /  8.0km/h 92% 0in /  0.0mm 0.00 W/m2
03:45 46.9 °F /  8.3 °C 44.8 °F /  7.1 °C 29.8in /  1010.4hPa SW 4.9mph /  7.9km/h 8mph /  12.9km/h 92% 0in /  0.0mm 0.00 W/m2
03:50 46.9 °F /  8.3 °C 44.8 °F /  7.1 °C 29.8in /  1010.4hPa SW 2.9mph /  4.7km/h 6mph /  9.7km/h 92% 0in /  0.0mm 0.00 W/m2
03:55 46.9 °F /  8.3 °C 44.8 °F /  7.1 °C 29.8in /  1010.4hPa SSW 2mph /  3.2km/h 5mph /  8.0km/h 92% 0in /  0.0mm 0.00 W/m2
04:00 46.8 °F /  8.2 °C 44.6 °F /  7.0 °C 29.8in /  1010.4hPa SW 2mph /  3.2km/h 6mph /  9.7km/h 92% 0in /  0.0mm 0.00 W/m2
04:05 46.8 °F /  8.2 °C 44.6 °F /  7.0 °C 29.8in /  1010.4hPa SW 2mph /  3.2km/h 6mph /  9.7km/h 92% 0in /  0.0mm 0.00 W/m2
04:10 46.8 °F /  8.2 °C 44.6 °F /  7.0 °C 29.8in /  1010.4hPa WSW 2mph /  3.2km/h 5mph /  8.0km/h 92% 0in /  0.0mm 0.00 W/m2
04:15 46.8 °F /  8.2 °C 44.6 °F /  7.0 °C 29.8in /  1010.4hPa WSW 2.9mph /  4.7km/h 6mph /  9.7km/h 92% 0in /  0.0mm 0.00 W/m2
04:20 46.6 °F /  8.1 °C 44.4 °F /  6.9 °C 29.8in /  1010.4hPa West 2mph /  3.2km/h 5mph /  8.0km/h 92% 0in /  0.0mm 0.00 W/m2
04:25 46.6 °F /  8.1 °C 44.4 °F /  6.9 °C 29.8in /  1010.4hPa West 2.9mph /  4.7km/h 4mph /  6.4km/h 92% 0in /  0.0mm 0.00 W/m2
04:30 46.6 °F /  8.1 °C 44.4 °F /  6.9 °C 29.8in /  1010.4hPa West 2mph /  3.2km/h 4mph /  6.4km/h 92% 0in /  0.0mm 0.00 W/m2
04:35 46.6 °F /  8.1 °C 44.4 °F /  6.9 °C 29.8in /  1010.0hPa SW 2mph /  3.2km/h 2mph /  3.2km/h 92% 0in /  0.0mm 0.00 W/m2
04:40 46.8 °F /  8.2 °C 44.6 °F /  7.0 °C 29.8in /  1010.0hPa WSW 0.9mph /  1.4km/h 7mph /  11.3km/h 92% 0in /  0.0mm 0.00 W/m2
04:45 46.8 °F /  8.2 °C 44.6 °F /  7.0 °C 29.8in /  1010.0hPa WSW 2mph /  3.2km/h 3mph /  4.8km/h 92% 0in /  0.0mm 0.00 W/m2
04:50 46.8 °F /  8.2 °C 44.6 °F /  7.0 °C 29.8in /  1010.0hPa SSW 2.9mph /  4.7km/h 4mph /  6.4km/h 92% 0in /  0.0mm 0.00 W/m2
04:55 46.8 °F /  8.2 °C 44.2 °F /  6.8 °C 29.8in /  1010.0hPa SW 2mph /  3.2km/h 7mph /  11.3km/h 91% 0in /  0.0mm 0.00 W/m2
05:00 46.8 °F /  8.2 °C 44.2 °F /  6.8 °C 29.8in /  1010.0hPa SSW 2mph /  3.2km/h 4mph /  6.4km/h 91% 0in /  0.0mm 0.00 W/m2
05:05 46.8 °F /  8.2 °C 44.2 °F /  6.8 °C 29.8in /  1010.0hPa WSW 4mph /  6.4km/h 5mph /  8.0km/h 91% 0in /  0.0mm 0.00 W/m2
05:10 46.8 °F /  8.2 °C 44.2 °F /  6.8 °C 29.8in /  1010.0hPa WSW 4mph /  6.4km/h 5mph /  8.0km/h 91% 0in /  0.0mm 0.00 W/m2
05:15 46.8 °F /  8.2 °C 44.2 °F /  6.8 °C 29.8in /  1010.0hPa SW 2mph /  3.2km/h 4mph /  6.4km/h 91% 0in /  0.0mm 0.00 W/m2
05:20 46.8 °F /  8.2 °C 44.2 °F /  6.8 °C 29.8in /  1010.0hPa SSW 2.9mph /  4.7km/h 5mph /  8.0km/h 91% 0in /  0.0mm 0.00 W/m2
05:25 46.6 °F /  8.1 °C 44.1 °F /  6.7 °C 29.8in /  1010.0hPa SSW 2mph /  3.2km/h 7mph /  11.3km/h 91% 0in /  0.0mm 0.00 W/m2
05:30 46.6 °F /  8.1 °C 44.1 °F /  6.7 °C 29.8in /  1010.0hPa South 2mph /  3.2km/h 8mph /  12.9km/h 91% 0in /  0.0mm 0.00 W/m2
05:35 46.6 °F /  8.1 °C 44.1 °F /  6.7 °C 29.8in /  1010.0hPa SW 4mph /  6.4km/h 7mph /  11.3km/h 91% 0in /  0.0mm 0.00 W/m2
05:40 46.6 °F /  8.1 °C 43.9 °F /  6.6 °C 29.8in /  1010.0hPa WSW 4mph /  6.4km/h 7mph /  11.3km/h 90% 0in /  0.0mm 0.00 W/m2
05:45 46.8 °F /  8.2 °C 44.1 °F /  6.7 °C 29.8in /  1010.0hPa WSW 6mph /  9.7km/h 8mph /  12.9km/h 90% 0in /  0.0mm 0.00 W/m2
05:51 46.8 °F /  8.2 °C 44.1 °F /  6.7 °C 29.8in /  1010.0hPa WSW 2mph /  3.2km/h 4mph /  6.4km/h 90% 0in /  0.0mm 0.00 W/m2
05:55 46.8 °F /  8.2 °C 44.1 °F /  6.7 °C 29.8in /  1009.7hPa SW 4mph /  6.4km/h 7mph /  11.3km/h 90% 0in /  0.0mm 0.00 W/m2
06:00 46.8 °F /  8.2 °C 44.1 °F /  6.7 °C 29.8in /  1009.7hPa SW 4mph /  6.4km/h 5mph /  8.0km/h 90% 0in /  0.0mm 0.00 W/m2
06:05 46.8 °F /  8.2 °C 44.1 °F /  6.7 °C 29.8in /  1009.7hPa SW 4mph /  6.4km/h 7mph /  11.3km/h 90% 0in /  0.0mm 0.00 W/m2
06:10 46.8 °F /  8.2 °C 43.7 °F /  6.5 °C 29.8in /  1009.7hPa SW 2.9mph /  4.7km/h 6mph /  9.7km/h 89% 0in /  0.0mm 0.00 W/m2
06:15 46.9 °F /  8.3 °C 44.2 °F /  6.8 °C 29.8in /  1009.7hPa SW 2.9mph /  4.7km/h 6mph /  9.7km/h 90% 0in /  0.0mm 0.00 W/m2
06:21 46.9 °F /  8.3 °C 43.9 °F /  6.6 °C 29.8in /  1009.4hPa South 2mph /  3.2km/h 6mph /  9.7km/h 89% 0in /  0.0mm 0.00 W/m2
06:25 47.1 °F /  8.4 °C 44.4 °F /  6.9 °C 29.8in /  1009.7hPa SSW 2.9mph /  4.7km/h 8mph /  12.9km/h 90% 0in /  0.0mm 0.00 W/m2
06:30 46.9 °F /  8.3 °C 44.2 °F /  6.8 °C 29.8in /  1009.7hPa SSE 6mph /  9.7km/h 6mph /  9.7km/h 90% 0in /  0.0mm 0.00 W/m2
06:35 46.9 °F /  8.3 °C 44.2 °F /  6.8 °C 29.8in /  1009.7hPa SSW 2mph /  3.2km/h 6mph /  9.7km/h 90% 0in /  0.0mm 0.00 W/m2
06:40 46.9 °F /  8.3 °C 44.2 °F /  6.8 °C 29.8in /  1009.4hPa SSW 0.9mph /  1.4km/h 6mph /  9.7km/h 90% 0in /  0.0mm 0.00 W/m2
06:45 46.9 °F /  8.3 °C 44.2 °F /  6.8 °C 29.8in /  1009.4hPa SW 2mph /  3.2km/h 5mph /  8.0km/h 90% 0in /  0.0mm 0.00 W/m2
06:50 46.8 °F /  8.2 °C 44.1 °F /  6.7 °C 29.8in /  1009.4hPa SSW 2.9mph /  4.7km/h 5mph /  8.0km/h 90% 0in /  0.0mm 0.00 W/m2
06:55 46.8 °F /  8.2 °C 44.1 °F /  6.7 °C 29.8in /  1009.4hPa Calm   5mph /  8.0km/h 90% 0in /  0.0mm 0.00 W/m2
07:00 46.8 °F /  8.2 °C 44.1 °F /  6.7 °C 29.8in /  1009.4hPa SSW 0.9mph /  1.4km/h 2mph /  3.2km/h 90% 0in /  0.0mm 0.00 W/m2
07:05 46.6 °F /  8.1 °C 43.9 °F /  6.6 °C 29.8in /  1009.4hPa SW 2mph /  3.2km/h 5mph /  8.0km/h 90% 0in /  0.0mm 0.00 W/m2
07:10 46.6 °F /  8.1 °C 43.9 °F /  6.6 °C 29.8in /  1009.4hPa SSW 2.9mph /  4.7km/h 3mph /  4.8km/h 90% 0in /  0.0mm 0.00 W/m2
07:15 46.6 °F /  8.1 °C 43.9 °F /  6.6 °C 29.8in /  1009.4hPa SSW 2mph /  3.2km/h 3mph /  4.8km/h 90% 0in /  0.0mm 0.00 W/m2
07:20 46.4 °F /  8.0 °C 43.7 °F /  6.5 °C 29.8in /  1009.4hPa SSW 4.9mph /  7.9km/h 6mph /  9.7km/h 90% 0in /  0.0mm 0.00 W/m2
07:25 46.2 °F /  7.9 °C 43.5 °F /  6.4 °C 29.8in /  1009.0hPa South 2mph /  3.2km/h 3mph /  4.8km/h 90% 0in /  0.0mm 0.00 W/m2
07:30 46.4 °F /  8.0 °C 43.7 °F /  6.5 °C 29.8in /  1009.0hPa East 2mph /  3.2km/h 3mph /  4.8km/h 90% 0in /  0.0mm 0.00 W/m2
07:35 46.2 °F /  7.9 °C 43.5 °F /  6.4 °C 29.8in /  1009.0hPa SSE 0.9mph /  1.4km/h 5mph /  8.0km/h 90% 0in /  0.0mm 0.00 W/m2
07:40 46.2 °F /  7.9 °C 43.5 °F /  6.4 °C 29.8in /  1009.0hPa SSE 0.9mph /  1.4km/h 2mph /  3.2km/h 90% 0in /  0.0mm 0.00 W/m2
07:45 46.2 °F /  7.9 °C 43.5 °F /  6.4 °C 29.8in /  1009.0hPa Calm   2mph /  3.2km/h 90% 0in /  0.0mm 0.00 W/m2
07:50 46.4 °F /  8.0 °C 43.7 °F /  6.5 °C 29.8in /  1009.0hPa South 2mph /  3.2km/h 4mph /  6.4km/h 90% 0in /  0.0mm 0.00 W/m2
07:55 46.2 °F /  7.9 °C 43.5 °F /  6.4 °C 29.8in /  1009.0hPa SSW 4.9mph /  7.9km/h 8mph /  12.9km/h 90% 0in /  0.0mm 0.00 W/m2
08:00 46.6 °F /  8.1 °C 43.9 °F /  6.6 °C 29.8in /  1009.0hPa SSW 4.9mph /  7.9km/h 5mph /  8.0km/h 90% 0in /  0.0mm 0.00 W/m2
08:05 46.9 °F /  8.3 °C 44.2 °F /  6.8 °C 29.8in /  1009.0hPa SSW 11mph /  17.7km/h 12mph /  19.3km/h 90% 0in /  0.0mm 7.00 W/m2
08:10 47.3 °F /  8.5 °C 44.2 °F /  6.8 °C 29.8in /  1009.0hPa SSE 6.9mph /  11.1km/h 9mph /  14.5km/h 89% 0in /  0.0mm 16.00 W/m2
08:15 47.5 °F /  8.6 °C 44.1 °F /  6.7 °C 29.8in /  1009.0hPa South 8.9mph /  14.3km/h 9mph /  14.5km/h 88% 0in /  0.0mm 19.00 W/m2
08:20 47.5 °F /  8.6 °C 44.1 °F /  6.7 °C 29.8in /  1009.0hPa South 6mph /  9.7km/h 11mph /  17.7km/h 88% 0in /  0.0mm 19.00 W/m2
08:25 47.5 °F /  8.6 °C 44.1 °F /  6.7 °C 29.8in /  1009.0hPa South 6.9mph /  11.1km/h 9mph /  14.5km/h 88% 0in /  0.0mm 30.00 W/m2
08:30 47.5 °F /  8.6 °C 44.1 °F /  6.7 °C 29.8in /  1009.0hPa South 6.9mph /  11.1km/h 11mph /  17.7km/h 88% 0in /  0.0mm 44.00 W/m2
08:35 47.5 °F /  8.6 °C 44.1 °F /  6.7 °C 29.8in /  1009.0hPa South 6.9mph /  11.1km/h 8mph /  12.9km/h 88% 0in /  0.0mm 44.00 W/m2
08:40 47.7 °F /  8.7 °C 44.2 °F /  6.8 °C 29.8in /  1009.0hPa SSW 4mph /  6.4km/h 7mph /  11.3km/h 88% 0in /  0.0mm 47.00 W/m2
08:45 47.7 °F /  8.7 °C 44.2 °F /  6.8 °C 29.8in /  1009.0hPa South 6mph /  9.7km/h 7mph /  11.3km/h 88% 0in /  0.0mm 51.00 W/m2
08:50 47.7 °F /  8.7 °C 44.2 °F /  6.8 °C 29.8in /  1009.0hPa SSE 2mph /  3.2km/h 7mph /  11.3km/h 88% 0in /  0.0mm 51.00 W/m2
08:55 47.7 °F /  8.7 °C 44.6 °F /  7.0 °C 29.8in /  1009.0hPa South 4.9mph /  7.9km/h 5mph /  8.0km/h 89% 0in /  0.0mm 53.00 W/m2
09:00 47.7 °F /  8.7 °C 44.6 °F /  7.0 °C 29.8in /  1008.7hPa South 2mph /  3.2km/h 6mph /  9.7km/h 89% 0in /  0.0mm 54.00 W/m2
09:06 47.7 °F /  8.7 °C 44.6 °F /  7.0 °C 29.8in /  1008.7hPa South 2mph /  3.2km/h 7mph /  11.3km/h 89% 0in /  0.0mm 62.00 W/m2
09:10 47.8 °F /  8.8 °C 44.8 °F /  7.1 °C 29.8in /  1008.7hPa SSE 2.9mph /  4.7km/h 4mph /  6.4km/h 89% 0in /  0.0mm 70.00 W/m2
09:15 47.8 °F /  8.8 °C 44.8 °F /  7.1 °C 29.8in /  1008.7hPa SSW 2mph /  3.2km/h 6mph /  9.7km/h 89% 0in /  0.0mm 76.00 W/m2
09:20 47.8 °F /  8.8 °C 44.8 °F /  7.1 °C 29.8in /  1008.7hPa SW 2.9mph /  4.7km/h 7mph /  11.3km/h 89% 0in /  0.0mm 79.00 W/m2
09:25 47.8 °F /  8.8 °C 44.8 °F /  7.1 °C 29.8in /  1008.7hPa SSW 2mph /  3.2km/h 6mph /  9.7km/h 89% 0in /  0.0mm 77.00 W/m2
09:31 47.8 °F /  8.8 °C 44.8 °F /  7.1 °C 29.8in /  1008.7hPa South 4mph /  6.4km/h 6mph /  9.7km/h 89% 0in /  0.0mm 76.00 W/m2
09:35 48 °F /  8.9 °C 45 °F /  7.2 °C 29.8in /  1008.4hPa South 4mph /  6.4km/h 10mph /  16.1km/h 89% 0in /  0.0mm 77.00 W/m2
09:40 48 °F /  8.9 °C 45 °F /  7.2 °C 29.8in /  1008.4hPa South 6.9mph /  11.1km/h 11mph /  17.7km/h 89% 0in /  0.0mm 76.00 W/m2
09:45 48 °F /  8.9 °C 45 °F /  7.2 °C 29.8in /  1008.4hPa South 6mph /  9.7km/h 8mph /  12.9km/h 89% 0in /  0.0mm 74.00 W/m2
09:50 48 °F /  8.9 °C 45 °F /  7.2 °C 29.8in /  1008.4hPa South 4.9mph /  7.9km/h 11mph /  17.7km/h 89% 0in /  0.0mm 72.00 W/m2
09:55 48.2 °F /  9.0 °C 45.1 °F /  7.3 °C 29.8in /  1008.4hPa SSW 6.9mph /  11.1km/h 16mph /  25.7km/h 89% 0in /  0.0mm 60.00 W/m2
10:00 48.4 °F /  9.1 °C 45.5 °F /  7.5 °C 29.8in /  1008.4hPa South 6mph /  9.7km/h 11mph /  17.7km/h 90% 0in /  0.0mm 62.00 W/m2
10:05 48.6 °F /  9.2 °C 45.5 °F /  7.5 °C 29.8in /  1008.4hPa SSW 4.9mph /  7.9km/h 13mph /  20.9km/h 89% 0in /  0.0mm 62.00 W/m2
10:10 48.6 °F /  9.2 °C 45.5 °F /  7.5 °C 29.8in /  1008.4hPa SSE 8.1mph /  13.0km/h 10mph /  16.1km/h 89% 0in /  0.0mm 60.00 W/m2
10:15 48.7 °F /  9.3 °C 45.7 °F /  7.6 °C 29.8in /  1008.4hPa SSE 6mph /  9.7km/h 9mph /  14.5km/h 89% 0in /  0.0mm 60.00 W/m2
10:20 48.7 °F /  9.3 °C 45.7 °F /  7.6 °C 29.8in /  1008.4hPa SSE 4.9mph /  7.9km/h 12mph /  19.3km/h 89% 0in /  0.0mm 67.00 W/m2
10:25 48.9 °F /  9.4 °C 45.9 °F /  7.7 °C 29.8in /  1008.4hPa South 13mph /  20.9km/h 13mph /  20.9km/h 89% 0in /  0.0mm 56.00 W/m2
10:30 48.9 °F /  9.4 °C 45.9 °F /  7.7 °C 29.8in /  1008.4hPa South 8.1mph /  13.0km/h 10mph /  16.1km/h 89% 0in /  0.0mm 81.00 W/m2
10:35 49.1 °F /  9.5 °C 46 °F /  7.8 °C 29.8in /  1008.0hPa SSW 6.9mph /  11.1km/h 8mph /  12.9km/h 89% 0in /  0.0mm 77.00 W/m2
10:40 49.3 °F /  9.6 °C 46.2 °F /  7.9 °C 29.8in /  1008.0hPa South 2.9mph /  4.7km/h 9mph /  14.5km/h 89% 0in /  0.0mm 54.00 W/m2
10:45 49.3 °F /  9.6 °C 46.2 °F /  7.9 °C 29.8in /  1008.0hPa South 6mph /  9.7km/h 10mph /  16.1km/h 89% 0in /  0.0mm 62.00 W/m2
10:50 49.5 °F /  9.7 °C 46.4 °F /  8.0 °C 29.8in /  1008.0hPa SSW 6mph /  9.7km/h 11mph /  17.7km/h 89% 0in /  0.0mm 69.00 W/m2
10:56 49.5 °F /  9.7 °C 46.4 °F /  8.0 °C 29.8in /  1008.0hPa South 2.9mph /  4.7km/h 10mph /  16.1km/h 89% 0in /  0.0mm 58.00 W/m2
11:00 49.5 °F /  9.7 °C 46.4 °F /  8.0 °C 29.8in /  1008.0hPa South 4mph /  6.4km/h 10mph /  16.1km/h 89% 0in /  0.0mm 47.00 W/m2
11:05 49.5 °F /  9.7 °C 46 °F /  7.8 °C 29.8in /  1008.0hPa SSW 6mph /  9.7km/h 7mph /  11.3km/h 88% 0in /  0.0mm 54.00 W/m2
11:10 49.5 °F /  9.7 °C 46.4 °F /  8.0 °C 29.8in /  1008.0hPa South 6.9mph /  11.1km/h 13mph /  20.9km/h 89% 0in /  0.0mm 44.00 W/m2
11:15 49.3 °F /  9.6 °C 46.2 °F /  7.9 °C 29.8in /  1007.7hPa SSE 10.1mph /  16.3km/h 15mph /  24.1km/h 89% 0.01in /  0.3mm 35.00 W/m2
11:20 49.3 °F /  9.6 °C 46.4 °F /  8.0 °C 29.8in /  1007.7hPa SSW 6mph /  9.7km/h 15mph /  24.1km/h 90% 0.01in /  0.3mm 40.00 W/m2
11:25 49.1 °F /  9.5 °C 46.2 °F /  7.9 °C 29.8in /  1007.7hPa SSE 6mph /  9.7km/h 10mph /  16.1km/h 90% 0.01in /  0.3mm 60.00 W/m2
11:30 49.1 °F /  9.5 °C 46.6 °F /  8.1 °C 29.8in /  1007.7hPa SSW 4mph /  6.4km/h 9mph /  14.5km/h 91% 0.01in /  0.3mm 47.00 W/m2
11:35 48.9 °F /  9.4 °C 46.4 °F /  8.0 °C 29.7in /  1007.3hPa South 6.9mph /  11.1km/h 9mph /  14.5km/h 91% 0.01in /  0.3mm 28.00 W/m2
11:40 48.9 °F /  9.4 °C 46.4 °F /  8.0 °C 29.7in /  1007.3hPa SSW 6mph /  9.7km/h 8mph /  12.9km/h 91% 0.02in /  0.5mm 23.00 W/m2
11:45 49.1 °F /  9.5 °C 46.6 °F /  8.1 °C 29.7in /  1007.3hPa SW 2mph /  3.2km/h 10mph /  16.1km/h 91% 0.02in /  0.5mm 47.00 W/m2
11:50 49.1 °F /  9.5 °C 46.6 °F /  8.1 °C 29.7in /  1007.3hPa South 6mph /  9.7km/h 8mph /  12.9km/h 91% 0.03in /  0.8mm 30.00 W/m2
11:55 49.3 °F /  9.6 °C 47.1 °F /  8.4 °C 29.7in /  1007.0hPa South 8.1mph /  13.0km/h 8mph /  12.9km/h 92% 0.04in /  1.0mm 28.00 W/m2
12:00 49.3 °F /  9.6 °C 47.1 °F /  8.4 °C 29.7in /  1007.0hPa South 6mph /  9.7km/h 10mph /  16.1km/h 92% 0.04in /  1.0mm 35.00 W/m2
12:05 49.3 °F /  9.6 °C 47.1 °F /  8.4 °C 29.7in /  1007.0hPa SSW 4.9mph /  7.9km/h 8mph /  12.9km/h 92% 0.05in /  1.3mm 33.00 W/m2
12:10 49.5 °F /  9.7 °C 47.3 °F /  8.5 °C 29.7in /  1007.0hPa South 10.1mph /  16.3km/h 12mph /  19.3km/h 92% 0.06in /  1.5mm 33.00 W/m2
12:15 49.6 °F /  9.8 °C 47.5 °F /  8.6 °C 29.7in /  1006.7hPa South 8.1mph /  13.0km/h 11mph /  17.7km/h 92% 0.05in /  1.3mm 37.00 W/m2
12:20 49.8 °F /  9.9 °C 47.7 °F /  8.7 °C 29.7in /  1006.7hPa South 4.9mph /  7.9km/h 16mph /  25.7km/h 92% 0.06in /  1.5mm 40.00 W/m2
12:25 49.8 °F /  9.9 °C 47.7 °F /  8.7 °C 29.7in /  1006.7hPa SW 4mph /  6.4km/h 11mph /  17.7km/h 92% 0.06in /  1.5mm 26.00 W/m2
12:30 49.8 °F /  9.9 °C 47.7 °F /  8.7 °C 29.7in /  1006.7hPa WSW 2.9mph /  4.7km/h 10mph /  16.1km/h 92% 0.08in /  2.0mm 21.00 W/m2
12:35 49.6 °F /  9.8 °C 47.5 °F /  8.6 °C 29.7in /  1006.7hPa SW 8.1mph /  13.0km/h 10mph /  16.1km/h 92% 0.08in /  2.0mm 18.00 W/m2
12:40 49.6 °F /  9.8 °C 47.5 °F /  8.6 °C 29.7in /  1006.3hPa WSW 4.9mph /  7.9km/h 10mph /  16.1km/h 92% 0.09in /  2.3mm 19.00 W/m2
12:45 49.6 °F /  9.8 °C 47.5 °F /  8.6 °C 29.7in /  1006.3hPa SW 8.1mph /  13.0km/h 8mph /  12.9km/h 92% 0.1in /  2.5mm 23.00 W/m2
12:50 49.6 °F /  9.8 °C 47.5 °F /  8.6 °C 29.7in /  1006.3hPa SSW 4mph /  6.4km/h 11mph /  17.7km/h 92% 0.1in /  2.5mm 53.00 W/m2
12:55 49.6 °F /  9.8 °C 47.5 °F /  8.6 °C 29.7in /  1006.3hPa SSW 6.9mph /  11.1km/h 10mph /  16.1km/h 92% 0.09in /  2.3mm 58.00 W/m2
13:00 49.8 °F /  9.9 °C 47.7 °F /  8.7 °C 29.7in /  1006.0hPa South 4.9mph /  7.9km/h 13mph /  20.9km/h 92% 0.09in /  2.3mm 35.00 W/m2
13:05 49.8 °F /  9.9 °C 47.7 °F /  8.7 °C 29.7in /  1006.0hPa SSE 4mph /  6.4km/h 11mph /  17.7km/h 92% 0.09in /  2.3mm 35.00 W/m2
13:10 49.8 °F /  9.9 °C 47.7 °F /  8.7 °C 29.7in /  1006.0hPa SE 8.9mph /  14.3km/h 13mph /  20.9km/h 92% 0.09in /  2.3mm 51.00 W/m2
13:15 49.8 °F /  9.9 °C 47.7 °F /  8.7 °C 29.7in /  1006.0hPa South 4.9mph /  7.9km/h 15mph /  24.1km/h 92% 0.09in /  2.3mm 51.00 W/m2
13:20 49.8 °F /  9.9 °C 47.7 °F /  8.7 °C 29.7in /  1005.6hPa SSW 6.9mph /  11.1km/h 10mph /  16.1km/h 92% 0.09in /  2.3mm 51.00 W/m2
13:25 49.8 °F /  9.9 °C 47.7 °F /  8.7 °C 29.7in /  1005.6hPa SSW 8.9mph /  14.3km/h 12mph /  19.3km/h 92% 0.08in /  2.0mm 51.00 W/m2
13:30 49.8 °F /  9.9 °C 47.7 °F /  8.7 °C 29.7in /  1005.6hPa SSW 11mph /  17.7km/h 14mph /  22.5km/h 92% 0.08in /  2.0mm 46.00 W/m2
13:35 50 °F /  10.0 °C 47.8 °F /  8.8 °C 29.7in /  1005.6hPa South 4mph /  6.4km/h 13mph /  20.9km/h 92% 0.07in /  1.8mm 30.00 W/m2
13:40 50 °F /  10.0 °C 47.8 °F /  8.8 °C 29.7in /  1005.3hPa SW 8.1mph /  13.0km/h 11mph /  17.7km/h 92% 0.06in /  1.5mm 56.00 W/m2
13:45 50 °F /  10.0 °C 47.8 °F /  8.8 °C 29.7in /  1005.3hPa SSE 6mph /  9.7km/h 12mph /  19.3km/h 92% 0.04in /  1.0mm 54.00 W/m2
13:50 50 °F /  10.0 °C 47.8 °F /  8.8 °C 29.7in /  1005.3hPa SSW 4mph /  6.4km/h 10mph /  16.1km/h 92% 0.03in /  0.8mm 49.00 W/m2
13:55 50 °F /  10.0 °C 47.8 °F /  8.8 °C 29.7in /  1005.3hPa SSW 10.1mph /  16.3km/h 16mph /  25.7km/h 92% 0.03in /  0.8mm 35.00 W/m2
14:00 49.8 °F /  9.9 °C 47.7 °F /  8.7 °C 29.7in /  1005.3hPa SSW 16.1mph /  25.9km/h 16mph /  25.7km/h 92% 0.03in /  0.8mm 37.00 W/m2
14:05 49.8 °F /  9.9 °C 47.7 °F /  8.7 °C 29.7in /  1005.3hPa SW 6.9mph /  11.1km/h 15mph /  24.1km/h 92% 0.03in /  0.8mm 51.00 W/m2
14:10 49.8 °F /  9.9 °C 47.7 °F /  8.7 °C 29.7in /  1005.0hPa South 14.1mph /  22.7km/h 17mph /  27.4km/h 92% 0.02in /  0.5mm 46.00 W/m2
14:15 49.6 °F /  9.8 °C 47.1 °F /  8.4 °C 29.7in /  1005.0hPa South 11mph /  17.7km/h 11mph /  17.7km/h 91% 0.02in /  0.5mm 44.00 W/m2
14:20 49.5 °F /  9.7 °C 47.3 °F /  8.5 °C 29.7in /  1005.0hPa SW 11mph /  17.7km/h 12mph /  19.3km/h 92% 0.02in /  0.5mm 47.00 W/m2
14:25 49.5 °F /  9.7 °C 47.3 °F /  8.5 °C 29.7in /  1005.0hPa South 4mph /  6.4km/h 10mph /  16.1km/h 92% 0.02in /  0.5mm 47.00 W/m2
14:30 49.3 °F /  9.6 °C 47.1 °F /  8.4 °C 29.7in /  1004.6hPa SW 4.9mph /  7.9km/h 8mph /  12.9km/h 92% 0.02in /  0.5mm 51.00 W/m2
14:35 49.3 °F /  9.6 °C 47.3 °F /  8.5 °C 29.7in /  1004.6hPa SW 4mph /  6.4km/h 7mph /  11.3km/h 93% 0.02in /  0.5mm 32.00 W/m2
14:40 49.3 °F /  9.6 °C 47.3 °F /  8.5 °C 29.7in /  1004.6hPa SW 4mph /  6.4km/h 12mph /  19.3km/h 93% 0.02in /  0.5mm 23.00 W/m2
14:45 49.3 °F /  9.6 °C 47.3 °F /  8.5 °C 29.7in /  1004.6hPa WSW 8.9mph /  14.3km/h 11mph /  17.7km/h 93% 0.02in /  0.5mm 23.00 W/m2
14:50 49.3 °F /  9.6 °C 47.3 °F /  8.5 °C 29.7in /  1004.6hPa South 4.9mph /  7.9km/h 7mph /  11.3km/h 93% 0.02in /  0.5mm 26.00 W/m2
14:55 49.5 °F /  9.7 °C 47.5 °F /  8.6 °C 29.7in /  1004.6hPa SSW 6.9mph /  11.1km/h 13mph /  20.9km/h 93% 0.02in /  0.5mm 65.00 W/m2
15:00 49.5 °F /  9.7 °C 47.5 °F /  8.6 °C 29.7in /  1004.6hPa SW 6.9mph /  11.1km/h 8mph /  12.9km/h 93% 0.02in /  0.5mm 40.00 W/m2
15:05 49.6 °F /  9.8 °C 47.7 °F /  8.7 °C 29.7in /  1004.3hPa SW 8.9mph /  14.3km/h 10mph /  16.1km/h 93% 0.02in /  0.5mm 25.00 W/m2
15:10 49.6 °F /  9.8 °C 47.7 °F /  8.7 °C 29.7in /  1004.6hPa WSW 4mph /  6.4km/h 10mph /  16.1km/h 93% 0.02in /  0.5mm 37.00 W/m2
15:16 49.8 °F /  9.9 °C 47.8 °F /  8.8 °C 29.7in /  1004.6hPa WNW 4.9mph /  7.9km/h 9mph /  14.5km/h 93% 0.02in /  0.5mm 18.00 W/m2
15:20 49.6 °F /  9.8 °C 47.7 °F /  8.7 °C 29.7in /  1004.6hPa WSW 6mph /  9.7km/h 9mph /  14.5km/h 93% 0.03in /  0.8mm 21.00 W/m2
15:25 49.5 °F /  9.7 °C 47.8 °F /  8.8 °C 29.7in /  1004.6hPa West 6.9mph /  11.1km/h 9mph /  14.5km/h 94% 0.04in /  1.0mm 19.00 W/m2
15:30 49.3 °F /  9.6 °C 47.7 °F /  8.7 °C 29.7in /  1004.6hPa WNW 2.9mph /  4.7km/h 7mph /  11.3km/h 94% 0.04in /  1.0mm 44.00 W/m2
15:35 49.3 °F /  9.6 °C 47.7 °F /  8.7 °C 29.7in /  1004.6hPa West 4mph /  6.4km/h 9mph /  14.5km/h 94% 0.03in /  0.8mm 47.00 W/m2
15:40 49.1 °F /  9.5 °C 47.5 °F /  8.6 °C 29.7in /  1004.6hPa WNW 2mph /  3.2km/h 5mph /  8.0km/h 94% 0.03in /  0.8mm 44.00 W/m2
15:45 48.9 °F /  9.4 °C 47.3 °F /  8.5 °C 29.7in /  1005.0hPa West 6mph /  9.7km/h 8mph /  12.9km/h 94% 0.02in /  0.5mm 42.00 W/m2
15:50 48.7 °F /  9.3 °C 47.1 °F /  8.4 °C 29.7in /  1005.0hPa WNW 2.9mph /  4.7km/h 4mph /  6.4km/h 94% 0.02in /  0.5mm 40.00 W/m2
15:55 48.6 °F /  9.2 °C 46.9 °F /  8.3 °C 29.7in /  1005.0hPa NW 2.9mph /  4.7km/h 4mph /  6.4km/h 94% 0.02in /  0.5mm 35.00 W/m2
16:00 48.6 °F /  9.2 °C 46.9 °F /  8.3 °C 29.7in /  1005.0hPa WNW 2mph /  3.2km/h 4mph /  6.4km/h 94% 0.02in /  0.5mm 23.00 W/m2
16:05 48.4 °F /  9.1 °C 46.8 °F /  8.2 °C 29.7in /  1005.0hPa WNW 2mph /  3.2km/h 4mph /  6.4km/h 94% 0.02in /  0.5mm 19.00 W/m2
16:10 48.4 °F /  9.1 °C 46.8 °F /  8.2 °C 29.7in /  1005.0hPa WNW 2mph /  3.2km/h 5mph /  8.0km/h 94% 0.02in /  0.5mm 11.00 W/m2
16:15 48.2 °F /  9.0 °C 46.6 °F /  8.1 °C 29.7in /  1005.0hPa WNW 2mph /  3.2km/h 5mph /  8.0km/h 94% 0.02in /  0.5mm 7.00 W/m2
16:20 48 °F /  8.9 °C 46.4 °F /  8.0 °C 29.7in /  1005.0hPa West 4mph /  6.4km/h 11mph /  17.7km/h 94% 0.01in /  0.3mm 9.00 W/m2
16:25 48 °F /  8.9 °C 46.4 °F /  8.0 °C 29.7in /  1005.0hPa WNW 4mph /  6.4km/h 9mph /  14.5km/h 94% 0in /  0.0mm 7.00 W/m2
16:30 48 °F /  8.9 °C 46.4 °F /  8.0 °C 29.7in /  1005.0hPa NW 2.9mph /  4.7km/h 5mph /  8.0km/h 94% 0in /  0.0mm 5.00 W/m2
16:35 47.8 °F /  8.8 °C 46.2 °F /  7.9 °C 29.7in /  1005.0hPa NW 2.9mph /  4.7km/h 5mph /  8.0km/h 94% 0in /  0.0mm 5.00 W/m2
16:40 47.7 °F /  8.7 °C 46 °F /  7.8 °C 29.7in /  1005.0hPa West 2mph /  3.2km/h 6mph /  9.7km/h 94% 0in /  0.0mm 0.00 W/m2
16:45 47.7 °F /  8.7 °C 46 °F /  7.8 °C 29.7in /  1005.0hPa WNW 2mph /  3.2km/h 5mph /  8.0km/h 94% 0in /  0.0mm 0.00 W/m2
16:50 47.5 °F /  8.6 °C 45.9 °F /  7.7 °C 29.7in /  1005.0hPa West 4mph /  6.4km/h 9mph /  14.5km/h 94% 0in /  0.0mm 0.00 W/m2
16:55 47.3 °F /  8.5 °C 45.7 °F /  7.6 °C 29.7in /  1005.0hPa WNW 4mph /  6.4km/h 5mph /  8.0km/h 94% 0in /  0.0mm 0.00 W/m2
17:00 47.1 °F /  8.4 °C 45.5 °F /  7.5 °C 29.7in /  1005.0hPa NW 4.9mph /  7.9km/h 5mph /  8.0km/h 94% 0in /  0.0mm 0.00 W/m2
17:05 46.9 °F /  8.3 °C 45.3 °F /  7.4 °C 29.7in /  1005.0hPa West 2.9mph /  4.7km/h 6mph /  9.7km/h 94% 0in /  0.0mm 0.00 W/m2
17:10 46.9 °F /  8.3 °C 45.3 °F /  7.4 °C 29.7in /  1005.3hPa West 2mph /  3.2km/h 5mph /  8.0km/h 94% 0in /  0.0mm 0.00 W/m2
17:15 46.8 °F /  8.2 °C 45.1 °F /  7.3 °C 29.7in /  1005.3hPa WNW 2mph /  3.2km/h 4mph /  6.4km/h 94% 0in /  0.0mm 0.00 W/m2
17:20 46.8 °F /  8.2 °C 45.1 °F /  7.3 °C 29.7in /  1005.3hPa West 2.9mph /  4.7km/h 6mph /  9.7km/h 94% 0in /  0.0mm 0.00 W/m2
17:25 46.6 °F /  8.1 °C 45 °F /  7.2 °C 29.7in /  1005.3hPa WNW 2.9mph /  4.7km/h 5mph /  8.0km/h 94% 0in /  0.0mm 0.00 W/m2
17:30 46.6 °F /  8.1 °C 45 °F /  7.2 °C 29.7in /  1005.3hPa WNW 2mph /  3.2km/h 4mph /  6.4km/h 94% 0in /  0.0mm 0.00 W/m2
17:35 46.6 °F /  8.1 °C 45 °F /  7.2 °C 29.7in /  1005.3hPa West 2mph /  3.2km/h 5mph /  8.0km/h 94% 0in /  0.0mm 0.00 W/m2
17:40 46.6 °F /  8.1 °C 45 °F /  7.2 °C 29.7in /  1005.0hPa West 2.9mph /  4.7km/h 3mph /  4.8km/h 94% 0in /  0.0mm 0.00 W/m2
17:45 46.6 °F /  8.1 °C 45 °F /  7.2 °C 29.7in /  1005.3hPa West 2mph /  3.2km/h 4mph /  6.4km/h 94% 0in /  0.0mm 0.00 W/m2
17:50 46.6 °F /  8.1 °C 45 °F /  7.2 °C 29.7in /  1005.3hPa WNW 0.9mph /  1.4km/h 3mph /  4.8km/h 94% 0in /  0.0mm 0.00 W/m2
17:55 46.6 °F /  8.1 °C 45 °F /  7.2 °C 29.7in /  1005.3hPa WNW 0.9mph /  1.4km/h 3mph /  4.8km/h 94% 0in /  0.0mm 0.00 W/m2
18:00 46.6 °F /  8.1 °C 45 °F /  7.2 °C 29.7in /  1005.3hPa WSW 0.9mph /  1.4km/h 4mph /  6.4km/h 94% 0in /  0.0mm 0.00 W/m2
18:05 46.4 °F /  8.0 °C 44.8 °F /  7.1 °C 29.7in /  1005.3hPa WSW 0.9mph /  1.4km/h 3mph /  4.8km/h 94% 0in /  0.0mm 0.00 W/m2
18:10 46.2 °F /  7.9 °C 44.6 °F /  7.0 °C 29.7in /  1005.3hPa Calm   2mph /  3.2km/h 94% 0in /  0.0mm 0.00 W/m2
18:15 46.2 °F /  7.9 °C 44.6 °F /  7.0 °C 29.7in /  1005.3hPa WSW 0.9mph /  1.4km/h 2mph /  3.2km/h 94% 0in /  0.0mm 0.00 W/m2
18:20 46 °F /  7.8 °C 44.4 °F /  6.9 °C 29.7in /  1005.0hPa WSW 0.9mph /  1.4km/h 2mph /  3.2km/h 94% 0in /  0.0mm 0.00 W/m2
18:25 46 °F /  7.8 °C 44.4 °F /  6.9 °C 29.7in /  1005.0hPa WSW 0.9mph /  1.4km/h 2mph /  3.2km/h 94% 0in /  0.0mm 0.00 W/m2
18:30 46 °F /  7.8 °C 44.4 °F /  6.9 °C 29.7in /  1005.0hPa Calm     94% 0in /  0.0mm 0.00 W/m2
18:35 45.9 °F /  7.7 °C 44.2 °F /  6.8 °C 29.7in /  1005.0hPa Calm     94% 0in /  0.0mm 0.00 W/m2
18:40 45.7 °F /  7.6 °C 44.1 °F /  6.7 °C 29.7in /  1005.0hPa Calm   1mph /  1.6km/h 94% 0in /  0.0mm 0.00 W/m2
18:45 45.3 °F /  7.4 °C 44.1 °F /  6.7 °C 29.7in /  1005.0hPa WSW 2mph /  3.2km/h 2mph /  3.2km/h 95% 0in /  0.0mm 0.00 W/m2
18:50 45.3 °F /  7.4 °C 43.7 °F /  6.5 °C 29.7in /  1005.3hPa WSW 2mph /  3.2km/h 3mph /  4.8km/h 94% 0in /  0.0mm 0.00 W/m2
18:55 45.3 °F /  7.4 °C 44.1 °F /  6.7 °C 29.7in /  1005.3hPa NW 4mph /  6.4km/h 4mph /  6.4km/h 95% 0in /  0.0mm 0.00 W/m2
19:00 45.3 °F /  7.4 °C 43.7 °F /  6.5 °C 29.7in /  1005.3hPa WNW 2mph /  3.2km/h 3mph /  4.8km/h 94% 0.01in /  0.3mm 0.00 W/m2
19:05 45.3 °F /  7.4 °C 44.1 °F /  6.7 °C 29.7in /  1005.3hPa WNW 2mph /  3.2km/h 3mph /  4.8km/h 95% 0.01in /  0.3mm 0.00 W/m2
19:10 45.3 °F /  7.4 °C 44.1 °F /  6.7 °C 29.7in /  1005.3hPa WNW 2.9mph /  4.7km/h 3mph /  4.8km/h 95% 0.01in /  0.3mm 0.00 W/m2
19:15 45.1 °F /  7.3 °C 43.9 °F /  6.6 °C 29.7in /  1005.3hPa NW 2mph /  3.2km/h 4mph /  6.4km/h 95% 0.01in /  0.3mm 0.00 W/m2
19:20 45.1 °F /  7.3 °C 43.9 °F /  6.6 °C 29.7in /  1005.3hPa NW 2.9mph /  4.7km/h 3mph /  4.8km/h 95% 0.01in /  0.3mm 0.00 W/m2
19:25 45.1 °F /  7.3 °C 43.9 °F /  6.6 °C 29.7in /  1005.3hPa Calm   2mph /  3.2km/h 95% 0.01in /  0.3mm 0.00 W/m2
19:30 45.1 °F /  7.3 °C 43.9 °F /  6.6 °C 29.7in /  1005.3hPa NW 2mph /  3.2km/h 4mph /  6.4km/h 95% 0.01in /  0.3mm 0.00 W/m2
19:35 45 °F /  7.2 °C 43.7 °F /  6.5 °C 29.7in /  1005.3hPa NNW 2.9mph /  4.7km/h 4mph /  6.4km/h 95% 0.01in /  0.3mm 0.00 W/m2
19:40 45 °F /  7.2 °C 43.7 °F /  6.5 °C 29.7in /  1005.3hPa NW 2mph /  3.2km/h 3mph /  4.8km/h 95% 0.01in /  0.3mm 0.00 W/m2
19:45 44.8 °F /  7.1 °C 43.5 °F /  6.4 °C 29.7in /  1005.3hPa NW 2.9mph /  4.7km/h 4mph /  6.4km/h 95% 0.01in /  0.3mm 0.00 W/m2
19:50 44.8 °F /  7.1 °C 43.5 °F /  6.4 °C 29.7in /  1005.3hPa NW 0.9mph /  1.4km/h 1mph /  1.6km/h 95% 0.01in /  0.3mm 0.00 W/m2
19:55 44.6 °F /  7.0 °C 43.3 °F /  6.3 °C 29.7in /  1005.3hPa NW 0.9mph /  1.4km/h 2mph /  3.2km/h 95% 0.01in /  0.3mm 0.00 W/m2
20:00 44.2 °F /  6.8 °C 43 °F /  6.1 °C 29.7in /  1005.3hPa NW 0.9mph /  1.4km/h 2mph /  3.2km/h 95% 0in /  0.0mm 0.00 W/m2
20:05 44.2 °F /  6.8 °C 43 °F /  6.1 °C 29.7in /  1005.0hPa Calm   1mph /  1.6km/h 95% 0in /  0.0mm 0.00 W/m2
20:10 44.2 °F /  6.8 °C 43 °F /  6.1 °C 29.7in /  1005.0hPa WSW 2.9mph /  4.7km/h 4mph /  6.4km/h 95% 0in /  0.0mm 0.00 W/m2
20:15 44.8 °F /  7.1 °C 43.5 °F /  6.4 °C 29.7in /  1005.0hPa SSW 0.9mph /  1.4km/h 4mph /  6.4km/h 95% 0in /  0.0mm 0.00 W/m2
20:20 45.1 °F /  7.3 °C 43.9 °F /  6.6 °C 29.7in /  1005.3hPa SW 4mph /  6.4km/h 6mph /  9.7km/h 95% 0in /  0.0mm 0.00 W/m2
20:25 45.1 °F /  7.3 °C 43.9 °F /  6.6 °C 29.7in /  1005.3hPa SW 2.9mph /  4.7km/h 6mph /  9.7km/h 95% 0in /  0.0mm 0.00 W/m2
20:30 45.1 °F /  7.3 °C 43.9 °F /  6.6 °C 29.7in /  1005.3hPa SW 2mph /  3.2km/h 4mph /  6.4km/h 95% 0in /  0.0mm 0.00 W/m2
20:35 45.1 °F /  7.3 °C 43.9 °F /  6.6 °C 29.7in /  1005.0hPa SW 2mph /  3.2km/h 3mph /  4.8km/h 95% 0in /  0.0mm 0.00 W/m2
20:40 45.1 °F /  7.3 °C 43.9 °F /  6.6 °C 29.7in /  1005.0hPa SW 0.9mph /  1.4km/h 2mph /  3.2km/h 95% 0in /  0.0mm 0.00 W/m2
20:45 45.3 °F /  7.4 °C 44.1 °F /  6.7 °C 29.7in /  1005.0hPa SW 2.9mph /  4.7km/h 5mph /  8.0km/h 95% 0in /  0.0mm 0.00 W/m2
20:50 45.3 °F /  7.4 °C 44.1 °F /  6.7 °C 29.7in /  1005.0hPa WSW 4mph /  6.4km/h 6mph /  9.7km/h 95% 0in /  0.0mm 0.00 W/m2
20:55 45.3 °F /  7.4 °C 44.1 °F /  6.7 °C 29.7in /  1005.0hPa SW 2.9mph /  4.7km/h 7mph /  11.3km/h 95% 0in /  0.0mm 0.00 W/m2
21:00 45.3 °F /  7.4 °C 44.1 °F /  6.7 °C 29.7in /  1005.0hPa SSW 2.9mph /  4.7km/h 5mph /  8.0km/h 95% 0in /  0.0mm 0.00 W/m2
21:05 45.3 °F /  7.4 °C 44.1 °F /  6.7 °C 29.7in /  1005.0hPa SW 4.9mph /  7.9km/h 5mph /  8.0km/h 95% 0in /  0.0mm 0.00 W/m2
21:10 45.3 °F /  7.4 °C 44.1 °F /  6.7 °C 29.7in /  1005.0hPa SSW 2mph /  3.2km/h 3mph /  4.8km/h 95% 0in /  0.0mm 0.00 W/m2
21:15 45.3 °F /  7.4 °C 44.1 °F /  6.7 °C 29.7in /  1005.0hPa South 4mph /  6.4km/h 6mph /  9.7km/h 95% 0in /  0.0mm 0.00 W/m2
21:20 45.3 °F /  7.4 °C 44.1 °F /  6.7 °C 29.7in /  1005.3hPa South 4mph /  6.4km/h 7mph /  11.3km/h 95% 0in /  0.0mm 0.00 W/m2
21:25 45.3 °F /  7.4 °C 44.1 °F /  6.7 °C 29.7in /  1005.3hPa Calm   3mph /  4.8km/h 95% 0in /  0.0mm 0.00 W/m2
21:30 45.3 °F /  7.4 °C 44.1 °F /  6.7 °C 29.7in /  1005.3hPa SW 0.9mph /  1.4km/h 1mph /  1.6km/h 95% 0in /  0.0mm 0.00 W/m2
21:35 45.5 °F /  7.5 °C 44.2 °F /  6.8 °C 29.7in /  1005.3hPa SSE 2mph /  3.2km/h 5mph /  8.0km/h 95% 0in /  0.0mm 0.00 W/m2
21:40 45.5 °F /  7.5 °C 44.2 °F /  6.8 °C 29.7in /  1005.0hPa ESE 2mph /  3.2km/h 4mph /  6.4km/h 95% 0in /  0.0mm 0.00 W/m2
21:46 45.3 °F /  7.4 °C 44.1 °F /  6.7 °C 29.7in /  1005.0hPa SSW 2mph /  3.2km/h 3mph /  4.8km/h 95% 0in /  0.0mm 0.00 W/m2
21:50 45.3 °F /  7.4 °C 44.1 °F /  6.7 °C 29.7in /  1005.0hPa SW 2mph /  3.2km/h 3mph /  4.8km/h 95% 0in /  0.0mm 0.00 W/m2
21:55 45.3 °F /  7.4 °C 44.1 °F /  6.7 °C 29.7in /  1004.6hPa West 0.9mph /  1.4km/h 5mph /  8.0km/h 95% 0in /  0.0mm 0.00 W/m2
22:00 45.3 °F /  7.4 °C 44.1 °F /  6.7 °C 29.7in /  1004.6hPa NE 2.9mph /  4.7km/h 3mph /  4.8km/h 95% 0in /  0.0mm 0.00 W/m2
22:05 45.3 °F /  7.4 °C 44.1 °F /  6.7 °C 29.7in /  1004.6hPa Calm   3mph /  4.8km/h 95% 0in /  0.0mm 0.00 W/m2
22:10 45.1 °F /  7.3 °C 43.9 °F /  6.6 °C 29.7in /  1005.0hPa East 2mph /  3.2km/h 2mph /  3.2km/h 95% 0in /  0.0mm 0.00 W/m2
22:15 45.1 °F /  7.3 °C 43.5 °F /  6.4 °C 29.7in /  1005.0hPa NE 4mph /  6.4km/h 4mph /  6.4km/h 94% 0in /  0.0mm 0.00 W/m2
22:20 45 °F /  7.2 °C 43.7 °F /  6.5 °C 29.7in /  1004.6hPa NNW 2.9mph /  4.7km/h 4mph /  6.4km/h 95% 0in /  0.0mm 0.00 W/m2
22:25 44.8 °F /  7.1 °C 43.5 °F /  6.4 °C 29.7in /  1004.6hPa NNW 4mph /  6.4km/h 4mph /  6.4km/h 95% 0in /  0.0mm 0.00 W/m2
22:30 44.8 °F /  7.1 °C 43.5 °F /  6.4 °C 29.7in /  1005.0hPa NW 4.9mph /  7.9km/h 5mph /  8.0km/h 95% 0in /  0.0mm 0.00 W/m2
22:35 44.8 °F /  7.1 °C 43.2 °F /  6.2 °C 29.7in /  1005.0hPa WNW 2mph /  3.2km/h 5mph /  8.0km/h 94% 0in /  0.0mm 0.00 W/m2
22:40 45 °F /  7.2 °C 43.3 °F /  6.3 °C 29.7in /  1005.0hPa NNW 0.9mph /  1.4km/h 5mph /  8.0km/h 94% 0in /  0.0mm 0.00 W/m2
22:45 45 °F /  7.2 °C 43.3 °F /  6.3 °C 29.7in /  1005.0hPa SW 2mph /  3.2km/h 3mph /  4.8km/h 94% 0in /  0.0mm 0.00 W/m2
22:51 45.1 °F /  7.3 °C 43.5 °F /  6.4 °C 29.7in /  1005.0hPa WSW 2mph /  3.2km/h 4mph /  6.4km/h 94% 0in /  0.0mm 0.00 W/m2
22:55 45 °F /  7.2 °C 43.3 °F /  6.3 °C 29.7in /  1004.6hPa NNW 2mph /  3.2km/h 6mph /  9.7km/h 94% 0in /  0.0mm 0.00 W/m2
23:00 45 °F /  7.2 °C 43.3 °F /  6.3 °C 29.7in /  1004.6hPa Calm   1mph /  1.6km/h 94% 0in /  0.0mm 0.00 W/m2
23:05 44.8 °F /  7.1 °C 43.2 °F /  6.2 °C 29.7in /  1004.6hPa NW 0.9mph /  1.4km/h 2mph /  3.2km/h 94% 0in /  0.0mm 0.00 W/m2
23:10 44.6 °F /  7.0 °C 43 °F /  6.1 °C 29.7in /  1004.6hPa NW 2mph /  3.2km/h 3mph /  4.8km/h 94% 0in /  0.0mm 0.00 W/m2
23:15 44.6 °F /  7.0 °C 43 °F /  6.1 °C 29.7in /  1004.6hPa NW 0.9mph /  1.4km/h 2mph /  3.2km/h 94% 0in /  0.0mm 0.00 W/m2
23:20 44.4 °F /  6.9 °C 42.8 °F /  6.0 °C 29.7in /  1004.6hPa NNW 2mph /  3.2km/h 2mph /  3.2km/h 94% 0in /  0.0mm 0.00 W/m2
23:25 44.2 °F /  6.8 °C 42.6 °F /  5.9 °C 29.7in /  1004.6hPa NNW 2.9mph /  4.7km/h 4mph /  6.4km/h 94% 0in /  0.0mm 0.00 W/m2
23:30 44.6 °F /  7.0 °C 43 °F /  6.1 °C 29.7in /  1004.6hPa North 2.9mph /  4.7km/h 5mph /  8.0km/h 94% 0in /  0.0mm 0.00 W/m2
23:35 44.6 °F /  7.0 °C 43 °F /  6.1 °C 29.7in /  1004.6hPa NNW 2mph /  3.2km/h 4mph /  6.4km/h 94% 0in /  0.0mm 0.00 W/m2
23:40 44.8 °F /  7.1 °C 43.2 °F /  6.2 °C 29.7in /  1004.6hPa NW 2mph /  3.2km/h 4mph /  6.4km/h 94% 0in /  0.0mm 0.00 W/m2
23:45 44.8 °F /  7.1 °C 43.2 °F /  6.2 °C 29.7in /  1004.6hPa NW 0.9mph /  1.4km/h 3mph /  4.8km/h 94% 0in /  0.0mm 0.00 W/m2
23:50 44.8 °F /  7.1 °C 43.2 °F /  6.2 °C 29.7in /  1004.6hPa WNW 2.9mph /  4.7km/h 5mph /  8.0km/h 94% 0in /  0.0mm 0.00 W/m2
23:55 44.8 °F /  7.1 °C 43.2 °F /  6.2 °C 29.7in /  1004.6hPa WNW 2mph /  3.2km/h 3mph /  4.8km/h 94% 0in /  0.0mm 0.00 W/m2